createdAt,value
2023-04-28T00:00:39.958Z,934.00
2023-04-28T00:01:39.877Z,933.98
2023-04-28T00:02:40.042Z,933.99
2023-04-28T00:03:40.126Z,933.99
2023-04-28T00:04:40.004Z,933.95
2023-04-28T00:05:40.055Z,933.97
2023-04-28T00:06:40.067Z,933.97
2023-04-28T00:07:39.964Z,933.95
2023-04-28T00:08:39.972Z,933.93
2023-04-28T00:09:40.023Z,933.92
2023-04-28T00:10:40.011Z,933.96
2023-04-28T00:11:40.123Z,933.97
2023-04-28T00:12:40.035Z,933.99
2023-04-28T00:13:40.055Z,934.01
2023-04-28T00:14:40.062Z,934.02
2023-04-28T00:15:40.081Z,934.00
2023-04-28T00:16:40.173Z,933.98
2023-04-28T00:17:40.278Z,934.01
2023-04-28T00:18:40.149Z,934.03
2023-04-28T00:19:40.152Z,934.01
2023-04-28T00:20:40.171Z,934.04
2023-04-28T00:21:40.175Z,934.03
2023-04-28T00:22:40.190Z,934.06
2023-04-28T00:23:40.314Z,934.04
2023-04-28T00:24:40.214Z,934.00
2023-04-28T00:25:40.248Z,934.01
2023-04-28T00:26:40.241Z,934.04
2023-04-28T00:27:40.258Z,934.04
2023-04-28T00:28:40.277Z,934.02
2023-04-28T00:29:40.388Z,934.02
2023-04-28T00:30:40.303Z,934.04
2023-04-28T00:31:40.373Z,934.06
2023-04-28T00:32:40.432Z,934.05
2023-04-28T00:33:40.362Z,934.03
2023-04-28T00:34:40.470Z,934.05
2023-04-28T00:35:40.385Z,934.05
2023-04-28T00:36:40.413Z,934.05
2023-04-28T00:37:40.408Z,934.06
2023-04-28T00:38:40.432Z,934.06
2023-04-28T00:39:40.435Z,934.07
2023-04-28T00:40:40.654Z,934.10
2023-04-28T00:41:40.496Z,934.08
2023-04-28T00:42:40.481Z,934.07
2023-04-28T00:43:40.501Z,934.06
2023-04-28T00:44:40.524Z,934.05
2023-04-28T00:45:40.671Z,934.07
2023-04-28T00:46:40.542Z,934.11
2023-04-28T00:47:40.600Z,934.09
2023-04-28T00:48:40.582Z,934.09
2023-04-28T00:49:40.597Z,934.08
2023-04-28T00:50:40.609Z,934.09
2023-04-28T00:51:40.818Z,934.09
2023-04-28T00:52:40.636Z,934.10
2023-04-28T00:53:40.654Z,934.07
2023-04-28T00:54:40.669Z,934.09
2023-04-28T00:55:40.676Z,934.08
2023-04-28T00:56:40.692Z,934.12
2023-04-28T00:57:40.944Z,934.08
2023-04-28T00:58:40.728Z,934.11
2023-04-28T00:59:40.750Z,934.11
2023-04-28T01:00:40.758Z,934.13
2023-04-28T01:01:40.916Z,934.11
2023-04-28T01:02:40.901Z,934.13
2023-04-28T01:03:41.344Z,934.12
2023-04-28T01:04:41.041Z,934.14
2023-04-28T01:05:40.834Z,934.12
2023-04-28T01:06:40.849Z,934.16
2023-04-28T01:07:40.857Z,934.21
2023-04-28T01:08:40.972Z,934.13
2023-04-28T01:09:40.893Z,934.16
2023-04-28T01:10:40.902Z,934.17
2023-04-28T01:11:40.924Z,934.16
2023-04-28T01:12:40.942Z,934.20
2023-04-28T01:13:40.971Z,934.17
2023-04-28T01:14:41.059Z,934.21
2023-04-28T01:15:41.178Z,934.22
2023-04-28T01:16:41.031Z,934.20
2023-04-28T01:17:41.043Z,934.22
2023-04-28T01:18:41.021Z,934.25
2023-04-28T01:19:41.055Z,934.26
2023-04-28T01:20:41.152Z,934.24
2023-04-28T01:21:41.072Z,934.31
2023-04-28T01:22:41.095Z,934.25
2023-04-28T01:23:41.111Z,934.26
2023-04-28T01:24:41.111Z,934.27
2023-04-28T01:25:41.133Z,934.29
2023-04-28T01:26:41.246Z,934.26
2023-04-28T01:27:41.156Z,934.33
2023-04-28T01:28:41.184Z,934.28
2023-04-28T01:29:41.215Z,934.32
2023-04-28T01:30:41.221Z,934.29
2023-04-28T01:31:41.369Z,934.30
2023-04-28T01:32:41.357Z,934.30
2023-04-28T01:33:41.244Z,934.30
2023-04-28T01:34:41.262Z,934.27
2023-04-28T01:35:41.275Z,934.30
2023-04-28T01:36:41.304Z,934.30
2023-04-28T01:37:41.313Z,934.30
2023-04-28T01:38:41.418Z,934.28
2023-04-28T01:39:41.368Z,934.29
2023-04-28T01:40:41.350Z,934.27
2023-04-28T01:41:41.370Z,934.28
2023-04-28T01:42:41.396Z,934.31
2023-04-28T01:43:41.402Z,934.28
2023-04-28T01:44:41.543Z,934.28
2023-04-28T01:45:41.448Z,934.30
2023-04-28T01:46:41.505Z,934.28
2023-04-28T01:47:41.496Z,934.29
2023-04-28T01:48:41.475Z,934.25
2023-04-28T01:49:41.482Z,934.24
2023-04-28T01:50:41.597Z,934.25
2023-04-28T01:51:41.521Z,934.23
2023-04-28T01:52:41.526Z,934.25
2023-04-28T01:53:41.551Z,934.25
2023-04-28T01:54:41.555Z,934.25
2023-04-28T01:55:41.710Z,934.24
2023-04-28T01:56:41.605Z,934.25
2023-04-28T01:57:41.608Z,934.21
2023-04-28T01:58:41.626Z,934.20
2023-04-28T01:59:41.640Z,934.19
2023-04-28T02:00:41.646Z,934.18
2023-04-28T02:01:41.829Z,934.19
2023-04-28T02:02:41.755Z,934.19
2023-04-28T02:03:41.841Z,934.19
2023-04-28T02:04:41.743Z,934.18
2023-04-28T02:05:41.729Z,934.17
2023-04-28T02:06:41.739Z,934.17
2023-04-28T02:07:41.857Z,934.15
2023-04-28T02:08:41.805Z,934.18
2023-04-28T02:09:41.789Z,934.19
2023-04-28T02:10:41.802Z,934.18
2023-04-28T02:11:41.819Z,934.20
2023-04-28T02:12:41.832Z,934.17
2023-04-28T02:13:41.940Z,934.20
2023-04-28T02:14:41.856Z,934.16
2023-04-28T02:15:41.979Z,934.20
2023-04-28T02:16:41.888Z,934.14
2023-04-28T02:17:41.984Z,934.15
2023-04-28T02:18:42.016Z,934.16
2023-04-28T02:19:41.928Z,934.15
2023-04-28T02:20:41.947Z,934.18
2023-04-28T02:21:41.953Z,934.15
2023-04-28T02:22:41.979Z,934.13
2023-04-28T02:23:41.986Z,934.12
2023-04-28T02:24:42.108Z,934.12
2023-04-28T02:25:42.018Z,934.13
2023-04-28T02:26:42.026Z,934.12
2023-04-28T02:27:42.049Z,934.13
2023-04-28T02:28:42.066Z,934.13
2023-04-28T02:29:42.183Z,934.13
2023-04-28T02:30:42.086Z,934.11
2023-04-28T02:31:42.210Z,934.12
2023-04-28T02:32:42.159Z,934.14
2023-04-28T02:33:42.151Z,934.05
2023-04-28T02:34:42.245Z,934.13
2023-04-28T02:35:42.163Z,934.09
2023-04-28T02:36:42.182Z,934.11
2023-04-28T02:37:42.199Z,934.12
2023-04-28T02:38:42.203Z,934.07
2023-04-28T02:39:42.226Z,934.06
2023-04-28T02:40:42.334Z,934.04
2023-04-28T02:41:42.253Z,934.06
2023-04-28T02:42:42.276Z,934.08
2023-04-28T02:43:42.301Z,934.10
2023-04-28T02:44:42.308Z,934.10
2023-04-28T02:45:42.314Z,934.07
2023-04-28T02:46:42.488Z,934.09
2023-04-28T02:47:42.369Z,934.09
2023-04-28T02:48:42.353Z,934.13
2023-04-28T02:49:42.386Z,934.11
2023-04-28T02:50:43.396Z,934.13
2023-04-28T02:51:42.408Z,934.10
2023-04-28T02:52:42.520Z,934.14
2023-04-28T02:53:42.449Z,934.13
2023-04-28T02:54:42.444Z,934.10
2023-04-28T02:55:42.459Z,934.10
2023-04-28T02:56:42.471Z,934.08
2023-04-28T02:57:42.592Z,934.06
2023-04-28T02:58:42.511Z,934.07
2023-04-28T02:59:42.518Z,934.06
2023-04-28T03:00:42.542Z,934.08
2023-04-28T03:01:42.562Z,934.03
2023-04-28T03:02:42.706Z,934.04
2023-04-28T03:03:42.780Z,934.04
2023-04-28T03:04:42.621Z,934.01
2023-04-28T03:05:42.624Z,934.00
2023-04-28T03:06:42.622Z,934.02
2023-04-28T03:07:42.630Z,934.03
2023-04-28T03:08:42.756Z,934.01
2023-04-28T03:09:42.670Z,934.00
2023-04-28T03:10:42.680Z,933.97
2023-04-28T03:11:42.694Z,933.93
2023-04-28T03:12:42.710Z,933.94
2023-04-28T03:13:42.734Z,933.93
2023-04-28T03:14:42.836Z,933.91
2023-04-28T03:15:42.751Z,933.93
2023-04-28T03:16:42.881Z,933.84
2023-04-28T03:17:42.792Z,933.84
2023-04-28T03:18:42.804Z,933.81
2023-04-28T03:19:42.826Z,933.88
2023-04-28T03:20:42.923Z,933.82
2023-04-28T03:21:42.861Z,933.83
2023-04-28T03:22:42.857Z,933.84
2023-04-28T03:23:42.875Z,933.82
2023-04-28T03:24:42.893Z,933.83
2023-04-28T03:25:42.997Z,933.85
2023-04-28T03:26:42.920Z,933.86
2023-04-28T03:27:42.927Z,933.84
2023-04-28T03:28:42.948Z,933.84
2023-04-28T03:29:42.962Z,933.85
2023-04-28T03:30:42.984Z,933.82
2023-04-28T03:31:43.137Z,933.84
2023-04-28T03:32:43.048Z,933.80
2023-04-28T03:33:43.012Z,933.78
2023-04-28T03:34:43.036Z,933.83
2023-04-28T03:35:43.056Z,933.81
2023-04-28T03:36:43.158Z,933.80
2023-04-28T03:37:43.125Z,933.82
2023-04-28T03:38:43.102Z,933.81
2023-04-28T03:39:43.114Z,933.79
2023-04-28T03:40:43.122Z,933.79
2023-04-28T03:41:43.231Z,933.79
2023-04-28T03:42:43.146Z,933.80
2023-04-28T03:43:43.174Z,933.79
2023-04-28T03:44:43.203Z,933.80
2023-04-28T03:45:43.222Z,933.82
2023-04-28T03:46:43.209Z,933.82
2023-04-28T03:47:43.431Z,933.82
2023-04-28T03:48:43.250Z,933.81
2023-04-28T03:49:43.249Z,933.82
2023-04-28T03:50:43.273Z,933.81
2023-04-28T03:51:43.285Z,933.80
2023-04-28T03:52:43.300Z,933.81
2023-04-28T03:53:43.447Z,933.80
2023-04-28T03:54:43.324Z,933.77
2023-04-28T03:55:43.339Z,933.78
2023-04-28T03:56:43.351Z,933.77
2023-04-28T03:57:43.366Z,933.79
2023-04-28T03:58:43.392Z,933.80
2023-04-28T03:59:43.495Z,933.80
2023-04-28T04:00:43.413Z,933.81
2023-04-28T04:01:43.430Z,933.78
2023-04-28T04:02:43.578Z,933.76
2023-04-28T04:03:43.623Z,933.76
2023-04-28T04:04:43.578Z,933.71
2023-04-28T04:05:43.689Z,933.72
2023-04-28T04:06:43.508Z,933.71
2023-04-28T04:07:43.524Z,933.70
2023-04-28T04:08:43.538Z,933.65
2023-04-28T04:09:43.572Z,933.69
2023-04-28T04:10:43.555Z,933.65
2023-04-28T04:11:43.690Z,933.65
2023-04-28T04:12:43.606Z,933.65
2023-04-28T04:13:43.606Z,933.64
2023-04-28T04:14:43.619Z,933.63
2023-04-28T04:15:43.667Z,933.63
2023-04-28T04:16:43.757Z,933.62
2023-04-28T04:17:43.723Z,933.66
2023-04-28T04:18:43.690Z,933.66
2023-04-28T04:19:43.699Z,933.65
2023-04-28T04:20:43.712Z,933.62
2023-04-28T04:21:43.722Z,933.62
2023-04-28T04:22:43.835Z,933.64
2023-04-28T04:23:43.979Z,933.62
2023-04-28T04:24:43.767Z,933.65
2023-04-28T04:25:43.825Z,933.62
2023-04-28T04:26:43.792Z,933.61
2023-04-28T04:27:43.816Z,933.63
2023-04-28T04:28:43.922Z,933.61
2023-04-28T04:29:43.830Z,933.60
2023-04-28T04:30:43.864Z,933.65
2023-04-28T04:31:43.952Z,933.66
2023-04-28T04:32:43.920Z,933.63
2023-04-28T04:33:43.901Z,933.63
2023-04-28T04:34:44.013Z,933.66
2023-04-28T04:35:43.931Z,933.66
2023-04-28T04:36:43.945Z,933.66
2023-04-28T04:37:43.966Z,933.62
2023-04-28T04:38:43.977Z,933.64
2023-04-28T04:39:44.085Z,933.66
2023-04-28T04:40:43.994Z,933.63
2023-04-28T04:41:44.101Z,933.63
2023-04-28T04:42:44.027Z,933.62
2023-04-28T04:43:44.045Z,933.59
2023-04-28T04:44:44.079Z,933.65
2023-04-28T04:45:44.176Z,933.63
2023-04-28T04:46:44.118Z,933.62
2023-04-28T04:47:44.134Z,933.60
2023-04-28T04:48:44.106Z,933.60
2023-04-28T04:49:44.129Z,933.63
2023-04-28T04:50:44.144Z,933.62
2023-04-28T04:51:44.260Z,933.61
2023-04-28T04:52:44.179Z,933.62
2023-04-28T04:53:44.199Z,933.60
2023-04-28T04:54:44.197Z,933.59
2023-04-28T04:55:44.209Z,933.61
2023-04-28T04:56:44.223Z,933.61
2023-04-28T04:57:44.366Z,933.62
2023-04-28T04:58:44.273Z,933.62
2023-04-28T04:59:44.272Z,933.63
2023-04-28T05:00:44.287Z,933.58
2023-04-28T05:01:44.344Z,933.62
2023-04-28T05:02:44.429Z,933.61
2023-04-28T05:03:44.592Z,933.59
2023-04-28T05:04:44.402Z,933.60
2023-04-28T05:05:46.052Z,933.56
2023-04-28T05:06:44.376Z,933.55
2023-04-28T05:07:44.394Z,933.54
2023-04-28T05:08:44.401Z,933.51
2023-04-28T05:09:44.523Z,933.54
2023-04-28T05:10:44.441Z,933.54
2023-04-28T05:11:44.453Z,933.54
2023-04-28T05:13:44.589Z,933.52
2023-04-28T05:14:44.495Z,933.58
2023-04-28T05:15:44.614Z,933.52
2023-04-28T05:16:44.637Z,933.50
2023-04-28T05:17:45.001Z,933.56
2023-04-28T05:18:44.551Z,933.52
2023-04-28T05:19:44.579Z,933.53
2023-04-28T05:20:44.686Z,933.51
2023-04-28T05:21:44.589Z,933.52
2023-04-28T05:22:44.660Z,933.50
2023-04-28T05:23:44.652Z,933.53
2023-04-28T05:24:44.669Z,933.53
2023-04-28T05:25:44.701Z,933.52
2023-04-28T05:26:44.762Z,933.52
2023-04-28T05:27:44.684Z,933.54
2023-04-28T05:28:44.697Z,933.53
2023-04-28T05:29:44.818Z,933.56
2023-04-28T05:30:44.731Z,933.54
2023-04-28T05:31:44.898Z,933.54
2023-04-28T05:32:44.794Z,933.54
2023-04-28T05:33:44.771Z,933.55
2023-04-28T05:34:44.785Z,933.56
2023-04-28T05:35:44.799Z,933.56
2023-04-28T05:36:44.809Z,933.54
2023-04-28T05:37:44.929Z,933.52
2023-04-28T05:38:44.848Z,933.48
2023-04-28T05:39:44.855Z,933.52
2023-04-28T05:40:44.871Z,933.48
2023-04-28T05:41:44.887Z,933.48
2023-04-28T05:42:44.990Z,933.47
2023-04-28T05:43:44.909Z,933.51
2023-04-28T05:44:44.925Z,933.49
2023-04-28T05:45:44.986Z,933.53
2023-04-28T05:46:44.978Z,933.53
2023-04-28T05:47:44.994Z,933.55
2023-04-28T05:48:45.101Z,933.54
2023-04-28T05:49:44.992Z,933.55
2023-04-28T05:50:45.020Z,933.52
2023-04-28T05:51:45.028Z,933.50
2023-04-28T05:52:45.040Z,933.52
2023-04-28T05:53:45.048Z,933.50
2023-04-28T05:54:45.161Z,933.48
2023-04-28T05:55:45.085Z,933.47
2023-04-28T05:56:45.102Z,933.47
2023-04-28T05:57:52.391Z,933.42
2023-04-28T05:58:45.135Z,933.42
2023-04-28T05:59:45.237Z,933.40
2023-04-28T06:00:45.151Z,933.44
2023-04-28T06:01:45.190Z,933.41
2023-04-28T06:02:45.270Z,933.44
2023-04-28T06:03:45.528Z,933.45
2023-04-28T06:04:45.593Z,933.42
2023-04-28T06:05:45.626Z,933.44
2023-04-28T06:06:45.241Z,933.41
2023-04-28T06:07:45.262Z,933.45
2023-04-28T06:08:45.270Z,933.44
2023-04-28T06:09:45.281Z,933.41
2023-04-28T06:10:45.297Z,933.41
2023-04-28T06:11:45.414Z,933.43
2023-04-28T06:12:45.323Z,933.45
2023-04-28T06:13:46.762Z,933.45
2023-04-28T06:14:45.371Z,933.49
2023-04-28T06:15:45.404Z,933.50
2023-04-28T06:16:45.483Z,933.53
2023-04-28T06:17:45.461Z,933.53
2023-04-28T06:18:46.147Z,933.54
2023-04-28T06:19:45.437Z,933.53
2023-04-28T06:20:45.447Z,933.58
2023-04-28T06:21:45.455Z,933.55
2023-04-28T06:22:45.575Z,933.56
2023-04-28T06:23:45.481Z,933.56
2023-04-28T06:24:45.492Z,933.57
2023-04-28T06:25:45.510Z,933.59
2023-04-28T06:26:45.532Z,933.55
2023-04-28T06:27:45.647Z,933.56
2023-04-28T06:28:45.563Z,933.56
2023-04-28T06:29:45.566Z,933.56
2023-04-28T06:30:45.582Z,933.53
2023-04-28T06:31:45.678Z,933.57
2023-04-28T06:32:45.651Z,933.56
2023-04-28T06:33:45.745Z,933.57
2023-04-28T06:34:45.662Z,933.53
2023-04-28T06:35:45.675Z,933.61
2023-04-28T06:36:45.681Z,933.61
2023-04-28T06:37:45.677Z,933.65
2023-04-28T06:38:45.807Z,933.65
2023-04-28T06:39:45.709Z,933.65
2023-04-28T06:40:45.722Z,933.64
2023-04-28T06:41:45.741Z,933.61
2023-04-28T06:42:45.755Z,933.66
2023-04-28T06:43:45.767Z,933.64
2023-04-28T06:44:45.901Z,933.66
2023-04-28T06:45:45.801Z,933.66
2023-04-28T06:46:45.913Z,933.69
2023-04-28T06:47:45.896Z,933.73
2023-04-28T06:48:45.838Z,933.69
2023-04-28T06:49:45.984Z,933.74
2023-04-28T06:50:45.870Z,933.73
2023-04-28T06:51:45.883Z,933.70
2023-04-28T06:52:45.897Z,933.75
2023-04-28T06:53:45.908Z,933.74
2023-04-28T06:54:45.922Z,933.75
2023-04-28T06:55:46.064Z,933.79
2023-04-28T06:56:45.955Z,933.78
2023-04-28T06:57:45.982Z,933.78
2023-04-28T06:58:45.984Z,933.79
2023-04-28T06:59:46.003Z,933.77
2023-04-28T07:00:46.148Z,933.81
2023-04-28T07:01:46.046Z,933.79
2023-04-28T07:02:46.124Z,933.80
2023-04-28T07:03:46.169Z,933.83
2023-04-28T07:04:46.072Z,933.80
2023-04-28T07:05:46.272Z,933.82
2023-04-28T07:06:46.096Z,933.84
2023-04-28T07:07:46.111Z,933.84
2023-04-28T07:08:46.132Z,933.83
2023-04-28T07:09:46.146Z,933.87
2023-04-28T07:10:46.252Z,933.87
2023-04-28T07:11:46.178Z,933.88
2023-04-28T07:12:46.182Z,933.84
2023-04-28T07:13:46.480Z,933.86
2023-04-28T07:14:46.209Z,933.84
2023-04-28T07:15:46.234Z,933.86
2023-04-28T07:16:46.507Z,933.82
2023-04-28T07:17:46.351Z,933.87
2023-04-28T07:18:46.282Z,933.86
2023-04-28T07:19:46.295Z,933.82
2023-04-28T07:20:46.304Z,933.84
2023-04-28T07:21:46.343Z,933.81
2023-04-28T07:22:46.433Z,933.82
2023-04-28T07:23:46.347Z,933.82
2023-04-28T07:24:46.359Z,933.82
2023-04-28T07:25:46.366Z,933.83
2023-04-28T07:26:46.382Z,933.80
2023-04-28T07:27:46.638Z,933.82
2023-04-28T07:28:46.410Z,933.82
2023-04-28T07:29:46.433Z,933.86
2023-04-28T07:30:46.441Z,933.85
2023-04-28T07:31:46.466Z,933.82
2023-04-28T07:32:46.496Z,933.85
2023-04-28T07:33:46.589Z,933.85
2023-04-28T07:34:46.561Z,933.83
2023-04-28T07:35:46.521Z,933.89
2023-04-28T07:36:46.522Z,933.88
2023-04-28T07:37:46.562Z,933.87
2023-04-28T07:38:46.561Z,933.89
2023-04-28T07:39:46.676Z,933.92
2023-04-28T07:40:46.588Z,933.91
2023-04-28T07:41:46.594Z,933.96
2023-04-28T07:42:46.608Z,933.94
2023-04-28T07:43:46.661Z,933.97
2023-04-28T07:44:46.736Z,933.99
2023-04-28T07:45:46.677Z,933.97
2023-04-28T07:46:46.665Z,934.01
2023-04-28T07:47:46.748Z,934.03
2023-04-28T07:48:46.699Z,934.02
2023-04-28T07:49:46.703Z,934.01
2023-04-28T07:50:46.830Z,934.00
2023-04-28T07:51:46.733Z,934.01
2023-04-28T07:52:46.755Z,934.03
2023-04-28T07:53:46.793Z,934.05
2023-04-28T07:54:46.778Z,934.06
2023-04-28T07:55:46.790Z,934.05
2023-04-28T07:56:46.907Z,934.07
2023-04-28T07:57:46.830Z,934.09
2023-04-28T07:58:46.845Z,934.07
2023-04-28T07:59:46.856Z,934.10
2023-04-28T08:00:47.066Z,934.15
2023-04-28T08:01:46.986Z,934.12
2023-04-28T08:02:47.030Z,934.16
2023-04-28T08:03:47.035Z,934.18
2023-04-28T08:04:47.147Z,934.17
2023-04-28T08:05:47.066Z,934.22
2023-04-28T08:06:46.951Z,934.19
2023-04-28T08:07:47.068Z,934.24
2023-04-28T08:08:46.977Z,934.21
2023-04-28T08:09:47.019Z,934.25
2023-04-28T08:10:47.011Z,934.24
2023-04-28T08:11:47.033Z,934.23
2023-04-28T08:12:47.038Z,934.28
2023-04-28T08:13:47.151Z,934.27
2023-04-28T08:14:47.064Z,934.27
2023-04-28T08:15:47.112Z,934.31
2023-04-28T08:16:47.096Z,934.27
2023-04-28T08:17:47.206Z,934.33
2023-04-28T08:18:47.147Z,934.31
2023-04-28T08:19:47.250Z,934.31
2023-04-28T08:20:47.155Z,934.30
2023-04-28T08:21:47.164Z,934.32
2023-04-28T08:22:47.172Z,934.32
2023-04-28T08:23:47.183Z,934.36
2023-04-28T08:24:47.207Z,934.36
2023-04-28T08:25:47.353Z,934.39
2023-04-28T08:26:47.226Z,934.41
2023-04-28T08:27:47.242Z,934.41
2023-04-28T08:28:47.263Z,934.39
2023-04-28T08:29:47.275Z,934.40
2023-04-28T08:30:47.281Z,934.42
2023-04-28T08:31:47.494Z,934.40
2023-04-28T08:32:47.352Z,934.39
2023-04-28T08:33:47.323Z,934.42
2023-04-28T08:34:47.344Z,934.40
2023-04-28T08:35:47.359Z,934.45
2023-04-28T08:36:47.479Z,934.44
2023-04-28T08:37:47.380Z,934.41
2023-04-28T08:38:47.400Z,934.44
2023-04-28T08:39:47.410Z,934.46
2023-04-28T08:40:47.422Z,934.44
2023-04-28T08:41:47.459Z,934.46
2023-04-28T08:42:47.551Z,934.47
2023-04-28T08:43:47.468Z,934.47
2023-04-28T08:44:47.486Z,934.49
2023-04-28T08:45:47.500Z,934.48
2023-04-28T08:46:47.546Z,934.49
2023-04-28T08:47:47.628Z,934.49
2023-04-28T08:48:47.641Z,934.47
2023-04-28T08:49:47.550Z,934.49
2023-04-28T08:50:47.572Z,934.52
2023-04-28T08:51:47.628Z,934.50
2023-04-28T08:52:47.623Z,934.49
2023-04-28T08:54:11.807Z,934.50
2023-04-28T08:54:47.624Z,934.47
2023-04-28T08:55:47.640Z,934.51
2023-04-28T08:56:47.665Z,934.48
2023-04-28T08:57:48.101Z,934.50
2023-04-28T08:58:47.777Z,934.46
2023-04-28T08:59:47.698Z,934.50
2023-04-28T09:00:47.700Z,934.48
2023-04-28T09:01:47.733Z,934.50
2023-04-28T09:02:47.795Z,934.54
2023-04-28T09:03:47.902Z,934.52
2023-04-28T09:04:48.040Z,934.55
2023-04-28T09:05:47.844Z,934.55
2023-04-28T09:06:47.808Z,934.55
2023-04-28T09:07:47.866Z,934.58
2023-04-28T09:08:47.843Z,934.58
2023-04-28T09:09:47.949Z,934.60
2023-04-28T09:10:47.850Z,934.61
2023-04-28T09:11:47.861Z,934.61
2023-04-28T09:12:47.876Z,934.63
2023-04-28T09:13:47.906Z,934.65
2023-04-28T09:14:48.008Z,934.66
2023-04-28T09:15:47.922Z,934.64
2023-04-28T09:16:48.056Z,934.68
2023-04-28T09:17:47.981Z,934.68
2023-04-28T09:18:47.952Z,934.69
2023-04-28T09:19:47.989Z,934.72
2023-04-28T09:20:48.084Z,934.71
2023-04-28T09:21:47.998Z,934.70
2023-04-28T09:22:48.039Z,934.77
2023-04-28T09:23:48.046Z,934.74
2023-04-28T09:24:48.041Z,934.73
2023-04-28T09:25:48.064Z,934.76
2023-04-28T09:26:48.176Z,934.74
2023-04-28T09:27:48.092Z,934.73
2023-04-28T09:28:48.103Z,934.78
2023-04-28T09:29:48.142Z,934.76
2023-04-28T09:30:48.131Z,934.83
2023-04-28T09:31:48.267Z,934.83
2023-04-28T09:32:48.182Z,934.85
2023-04-28T09:33:48.170Z,934.83
2023-04-28T09:34:48.194Z,934.88
2023-04-28T09:35:48.203Z,934.88
2023-04-28T09:36:48.225Z,934.93
2023-04-28T09:37:48.328Z,934.88
2023-04-28T09:38:48.251Z,934.91
2023-04-28T09:39:48.258Z,934.91
2023-04-28T09:40:48.311Z,934.93
2023-04-28T09:41:48.290Z,934.91
2023-04-28T09:42:48.302Z,934.90
2023-04-28T09:43:48.414Z,934.94
2023-04-28T09:44:48.529Z,934.92
2023-04-28T09:45:48.406Z,934.94
2023-04-28T09:46:48.372Z,934.94
2023-04-28T09:47:48.519Z,934.98
2023-04-28T09:48:48.402Z,934.96
2023-04-28T09:49:48.501Z,934.96
2023-04-28T09:50:48.416Z,934.91
2023-04-28T09:51:48.439Z,934.96
2023-04-28T09:52:48.452Z,934.94
2023-04-28T09:53:48.456Z,934.95
2023-04-28T09:54:48.477Z,934.97
2023-04-28T09:55:48.584Z,934.95
2023-04-28T09:56:48.512Z,934.96
2023-04-28T09:57:50.089Z,934.97
2023-04-28T09:58:48.526Z,934.98
2023-04-28T09:59:48.552Z,934.96
2023-04-28T10:00:48.555Z,935.00
2023-04-28T10:01:48.747Z,935.01
2023-04-28T10:02:48.700Z,935.01
2023-04-28T10:03:48.686Z,935.07
2023-04-28T10:04:48.731Z,935.06
2023-04-28T10:05:48.691Z,935.06
2023-04-28T10:06:48.641Z,935.08
2023-04-28T10:07:48.753Z,935.09
2023-04-28T10:08:48.666Z,935.10
2023-04-28T10:09:48.680Z,935.11
2023-04-28T10:10:48.698Z,935.10
2023-04-28T10:11:48.716Z,935.05
2023-04-28T10:12:48.728Z,935.08
2023-04-28T10:13:48.834Z,935.06
2023-04-28T10:14:48.760Z,935.07
2023-04-28T10:15:49.590Z,935.11
2023-04-28T10:16:48.785Z,935.10
2023-04-28T10:17:48.915Z,935.13
2023-04-28T10:18:48.813Z,935.13
2023-04-28T10:19:48.940Z,935.17
2023-04-28T10:20:48.858Z,935.21
2023-04-28T10:21:49.435Z,935.19
2023-04-28T10:22:48.869Z,935.24
2023-04-28T10:23:48.876Z,935.25
2023-04-28T10:24:48.903Z,935.22
2023-04-28T10:25:49.001Z,935.26
2023-04-28T10:26:48.936Z,935.26
2023-04-28T10:27:48.941Z,935.28
2023-04-28T10:28:48.962Z,935.30
2023-04-28T10:29:48.966Z,935.33
2023-04-28T10:30:48.985Z,935.32
2023-04-28T10:31:49.113Z,935.34
2023-04-28T10:32:49.027Z,935.32
2023-04-28T10:33:49.038Z,935.34
2023-04-28T10:34:49.033Z,935.34
2023-04-28T10:35:49.047Z,935.30
2023-04-28T10:36:49.091Z,935.31
2023-04-28T10:37:49.182Z,935.34
2023-04-28T10:38:49.084Z,935.31
2023-04-28T10:39:49.102Z,935.34
2023-04-28T10:40:49.115Z,935.32
2023-04-28T10:41:49.365Z,935.36
2023-04-28T10:42:49.251Z,935.35
2023-04-28T10:43:49.158Z,935.36
2023-04-28T10:44:49.179Z,935.35
2023-04-28T10:45:49.355Z,935.36
2023-04-28T10:46:49.301Z,935.37
2023-04-28T10:47:49.273Z,935.35
2023-04-28T10:48:49.333Z,935.41
2023-04-28T10:49:49.385Z,935.43
2023-04-28T10:50:50.594Z,935.44
2023-04-28T10:51:49.470Z,935.39
2023-04-28T10:52:49.304Z,935.41
2023-04-28T10:53:49.306Z,935.42
2023-04-28T10:54:49.416Z,935.46
2023-04-28T10:55:49.346Z,935.52
2023-04-28T10:56:49.340Z,935.49
2023-04-28T10:57:49.381Z,935.57
2023-04-28T10:58:49.369Z,935.58
2023-04-28T10:59:49.381Z,935.59
2023-04-28T11:00:49.499Z,935.61
2023-04-28T11:01:49.445Z,935.61
2023-04-28T11:02:49.559Z,935.62
2023-04-28T11:03:49.654Z,935.67
2023-04-28T11:04:49.766Z,935.67
2023-04-28T11:05:49.486Z,935.72
2023-04-28T11:06:49.578Z,935.73
2023-04-28T11:07:49.499Z,935.74
2023-04-28T11:08:49.508Z,935.79
2023-04-28T11:09:49.533Z,935.77
2023-04-28T11:10:49.554Z,935.80
2023-04-28T11:11:49.556Z,935.83
2023-04-28T11:12:49.671Z,935.80
2023-04-28T11:13:49.598Z,935.81
2023-04-28T11:14:49.602Z,935.85
2023-04-28T11:15:49.609Z,935.87
2023-04-28T11:16:49.698Z,935.81
2023-04-28T11:17:49.636Z,935.87
2023-04-28T11:18:49.946Z,935.85
2023-04-28T11:19:49.687Z,935.86
2023-04-28T11:20:49.676Z,935.90
2023-04-28T11:21:49.838Z,935.84
2023-04-28T11:22:49.703Z,935.86
2023-04-28T11:23:49.813Z,935.85
2023-04-28T11:24:49.734Z,935.90
2023-04-28T11:25:49.742Z,935.90
2023-04-28T11:26:49.769Z,935.87
2023-04-28T11:27:49.767Z,935.88
2023-04-28T11:28:49.782Z,935.94
2023-04-28T11:29:49.896Z,935.91
2023-04-28T11:30:49.823Z,935.91
2023-04-28T11:31:49.992Z,935.94
2023-04-28T11:32:49.884Z,935.93
2023-04-28T11:33:49.854Z,935.99
2023-04-28T11:34:49.870Z,935.98
2023-04-28T11:35:49.979Z,935.99
2023-04-28T11:36:49.898Z,936.00
2023-04-28T11:37:49.934Z,935.97
2023-04-28T11:38:49.922Z,936.00
2023-04-28T11:39:49.937Z,936.02
2023-04-28T11:40:50.055Z,936.07
2023-04-28T11:41:49.967Z,936.06
2023-04-28T11:42:49.972Z,936.06
2023-04-28T11:43:50.000Z,936.07
2023-04-28T11:44:50.008Z,936.08
2023-04-28T11:45:50.084Z,936.13
2023-04-28T11:46:50.139Z,936.09
2023-04-28T11:47:50.081Z,936.12
2023-04-28T11:48:50.063Z,936.14
2023-04-28T11:49:50.075Z,936.16
2023-04-28T11:50:50.093Z,936.13
2023-04-28T11:51:50.290Z,936.11
2023-04-28T11:52:50.986Z,936.11
2023-04-28T11:53:50.155Z,936.13
2023-04-28T11:54:50.147Z,936.12
2023-04-28T11:55:50.158Z,936.10
2023-04-28T11:56:50.177Z,936.13
2023-04-28T11:57:50.191Z,936.09
2023-04-28T11:58:50.300Z,936.12
2023-04-28T11:59:50.605Z,936.11
2023-04-28T12:00:50.250Z,936.15
2023-04-28T12:01:50.250Z,936.17
2023-04-28T12:02:50.369Z,936.17
2023-04-28T12:03:50.386Z,936.18
2023-04-28T12:04:50.383Z,936.17
2023-04-28T12:05:50.343Z,936.21
2023-04-28T12:06:50.318Z,936.18
2023-04-28T12:07:50.337Z,936.16
2023-04-28T12:08:50.351Z,936.20
2023-04-28T12:09:50.379Z,936.24
2023-04-28T12:10:50.467Z,936.26
2023-04-28T12:11:50.380Z,936.29
2023-04-28T12:12:52.465Z,936.25
2023-04-28T12:13:50.415Z,936.30
2023-04-28T12:14:50.419Z,936.28
2023-04-28T12:15:50.472Z,936.27
2023-04-28T12:16:50.557Z,936.31
2023-04-28T12:17:50.759Z,936.30
2023-04-28T12:18:50.492Z,936.31
2023-04-28T12:19:50.498Z,936.33
2023-04-28T12:20:50.512Z,936.32
2023-04-28T12:21:50.518Z,936.38
2023-04-28T12:22:50.674Z,936.35
2023-04-28T12:23:50.556Z,936.39
2023-04-28T12:24:50.569Z,936.41
2023-04-28T12:25:50.593Z,936.41
2023-04-28T12:26:50.597Z,936.44
2023-04-28T12:27:50.608Z,936.47
2023-04-28T12:28:50.717Z,936.48
2023-04-28T12:29:50.637Z,936.53